Hlavní strana
METAR-TAF:

METAR-TAF

Letiště :

Syros, Řecko

zeměpisná šířka: 37-25-16N, zeměpisná délka: 024-56-54E, výška: 73 m

Aktuální stav počasí

Zpráva byla vytvořena před 28 minutami, v 23:50 UTC
Jihozápadní vítr 5 kt
Teplota 12°C
Vlhkost vzduchu 76%
Tlak 1005 hPa

METAR: LGSO 122350Z AUTO 23005KT //// // ////// 12/08 Q1005 RE//

Čas: 02:18 (00:18 UTC)


TAF: chybějící

Stav a předpovědi počasí z více než 4 000 letišť (zprávy METAR a TAF).

Červené a žluté tečky na mapě představují dostupné meteorologické stanice.

Když kurzor umístíte na tečku, zobrazí se název stanice.

Pak kliknutím zobrazíte stav a předpověď počasí.

Chcete-li změnit mapu, kliknutím na zelené tlačítko se znaménkem +mapu přiblížíte, kliknutím na zelené tlačítko se znaménkem – mapu oddálíte a kliknutím na zelené šipky přejdete na sousední mapy.


METAR-TAF: